Time;durP1;ratioP1;P1;durP2;ratioP2;P2;SDS_P1;SDS_P2;PMS_P1;PMS_P2;Temp;Humidity;BMP_temperature;BMP_pressure;BME280_temperature;BME280_humidity;BME280_pressure;Samples;Min_cycle;Max_cycle;Signal;HPM_P1;HPM_P2
2023/05/22 00:02:01;;;;;;;10.30;9.50;;;;;;;;;;4980494;28;20471;-40
2023/05/22 00:04:28;;;;;;;11.70;9.80;;;;;;;;;;4985321;28;20035;-40
2023/05/22 00:06:55;;;;;;;10.52;9.52;;;;;;;;;;4981988;28;20046;-41
2023/05/22 00:09:20;;;;;;;15.40;9.07;;;;;;;;;;4980578;28;20034;-41
2023/05/22 00:11:46;;;;;;;10.50;9.18;;;;;;;;;;4984232;28;20038;-43
2023/05/22 00:14:12;;;;;;;10.20;9.18;;;;;;;;;;4983171;28;20034;-45
2023/05/22 00:16:38;;;;;;;12.90;9.00;;;;;;;;;;4982881;28;20034;-41
2023/05/22 00:19:04;;;;;;;10.35;9.02;;;;;;;;;;4980759;28;20126;-45
2023/05/22 00:21:33;;;;;;;11.25;9.20;;;;;;;;;;4983522;28;20603;-43
2023/05/22 00:24:00;;;;;;;13.18;9.00;;;;;;;;;;4984636;28;20039;-43
2023/05/22 00:26:25;;;;;;;9.43;8.52;;;;;;;;;;4987857;28;20035;-44
2023/05/22 00:28:51;;;;;;;9.43;8.10;;;;;;;;;;4985834;28;20053;-40
2023/05/22 00:31:16;;;;;;;9.20;8.30;;;;;;;;;;4985088;28;20480;-41
2023/05/22 00:33:41;;;;;;;9.70;8.65;;;;;;;;;;4987081;28;20450;-40
2023/05/22 00:36:07;;;;;;;13.35;8.10;;;;;;;;;;4986608;28;20066;-43
2023/05/22 00:38:35;;;;;;;9.23;8.35;;;;;;;;;;4985535;28;20049;-40
2023/05/22 00:41:02;;;;;;;10.63;8.25;;;;;;;;;;4985018;28;20085;-40
2023/05/22 00:43:28;;;;;;;9.80;8.02;;;;;;;;;;4986639;28;20041;-40
2023/05/22 00:45:53;;;;;;;11.93;8.32;;;;;;;;;;4986176;28;20062;-42
2023/05/22 00:48:22;;;;;;;8.55;7.75;;;;;;;;;;4987402;28;20034;-40
2023/05/22 00:50:52;;;;;;;9.57;8.68;;;;;;;;;;4984381;28;20065;-44
2023/05/22 00:53:20;;;;;;;9.35;8.40;;;;;;;;;;4980739;28;20078;-46
2023/05/22 00:55:46;;;;;;;9.27;8.02;;;;;;;;;;4985300;28;20417;-46
2023/05/22 00:58:17;;;;;;;9.70;8.23;;;;;;;;;;4987314;28;20093;-41
2023/05/22 01:00:43;;;;;;;11.13;7.50;;;;;;;;;;4987090;28;20050;-44
2023/05/22 01:03:09;;;;;;;11.80;7.50;;;;;;;;;;4987559;28;20034;-41
2023/05/22 01:05:39;;;;;;;8.35;7.63;;;;;;;;;;4983926;28;20420;-43
2023/05/22 01:08:06;;;;;;;9.27;8.18;;;;;;;;;;4984465;28;20033;-43
2023/05/22 01:10:33;;;;;;;14.52;8.45;;;;;;;;;;4986456;28;20038;-40
2023/05/22 01:13:02;;;;;;;10.43;8.15;;;;;;;;;;4985477;28;20058;-47
2023/05/22 01:15:43;;;;;;;11.02;8.70;;;;;;;;;;5017595;28;20052;-41
2023/05/22 01:18:19;;;;;;;9.85;8.27;;;;;;;;;;4985522;28;20035;-48
2023/05/22 01:21:10;;;;;;;9.50;8.32;;;;;;;;;;4981314;28;20070;-45
2023/05/22 01:23:57;;;;;;;9.35;8.45;;;;;;;;;;4982159;28;20057;-41
2023/05/22 01:26:41;;;;;;;8.90;7.97;;;;;;;;;;4984820;28;20089;-49
2023/05/22 01:29:24;;;;;;;10.57;8.20;;;;;;;;;;4986105;28;20037;-46
2023/05/22 01:31:53;;;;;;;15.52;8.18;;;;;;;;;;4985178;28;20054;-41
2023/05/22 01:34:20;;;;;;;9.40;8.57;;;;;;;;;;4985071;28;20065;-41
2023/05/22 01:36:49;;;;;;;10.20;8.27;;;;;;;;;;4984792;28;20050;-43
2023/05/22 01:39:16;;;;;;;9.70;8.02;;;;;;;;;;4981808;28;20034;-42
2023/05/22 01:41:41;;;;;;;8.57;7.85;;;;;;;;;;4983679;28;20463;-49
2023/05/22 01:44:07;;;;;;;10.30;7.57;;;;;;;;;;4985211;28;20030;-46
2023/05/22 01:46:32;;;;;;;10.30;8.20;;;;;;;;;;4982955;28;20391;-49
2023/05/22 01:48:58;;;;;;;9.55;7.72;;;;;;;;;;4982877;28;20081;-40
2023/05/22 01:51:38;;;;;;;9.32;7.68;;;;;;;;;;4985042;28;20042;-40
2023/05/22 01:54:18;;;;;;;11.75;7.93;;;;;;;;;;4981166;28;20034;-40
2023/05/22 01:56:51;;;;;;;7.80;7.10;;;;;;;;;;4981744;28;20062;-39
2023/05/22 01:59:31;;;;;;;10.68;7.47;;;;;;;;;;4985267;28;20395;-42
2023/05/22 02:02:01;;;;;;;8.70;7.82;;;;;;;;;;4986535;28;20044;-41
2023/05/22 02:04:30;;;;;;;12.25;8.63;;;;;;;;;;4985707;28;20057;-43
2023/05/22 02:06:57;;;;;;;14.30;8.32;;;;;;;;;;4985835;28;20043;-42
2023/05/22 02:09:32;;;;;;;14.43;9.10;;;;;;;;;;4983689;28;20031;-40
2023/05/22 02:11:59;;;;;;;9.35;8.25;;;;;;;;;;4980555;28;20096;-40
2023/05/22 02:14:25;;;;;;;10.27;7.88;;;;;;;;;;4984896;28;20109;-40
2023/05/22 02:16:51;;;;;;;8.50;7.70;;;;;;;;;;4983664;28;20034;-41
2023/05/22 02:19:17;;;;;;;8.60;7.80;;;;;;;;;;4984705;28;20049;-40
2023/05/22 02:21:42;;;;;;;8.05;7.25;;;;;;;;;;4986171;28;20030;-41
2023/05/22 02:24:08;;;;;;;10.10;7.78;;;;;;;;;;4983244;28;20031;-44
2023/05/22 02:26:34;;;;;;;7.78;7.03;;;;;;;;;;4982798;28;20060;-43
2023/05/22 02:28:59;;;;;;;9.30;7.57;;;;;;;;;;4983349;28;20046;-40
2023/05/22 02:31:25;;;;;;;9.30;7.40;;;;;;;;;;4984317;28;20506;-41
2023/05/22 02:33:50;;;;;;;9.63;7.25;;;;;;;;;;4983606;28;20026;-40
2023/05/22 02:36:15;;;;;;;9.43;6.80;;;;;;;;;;4983210;28;20508;-43
2023/05/22 02:38:41;;;;;;;8.02;7.15;;;;;;;;;;4984103;28;20086;-41
2023/05/22 02:41:07;;;;;;;10.30;6.60;;;;;;;;;;4983087;28;20046;-43
2023/05/22 02:43:32;;;;;;;9.02;6.68;;;;;;;;;;4983751;28;20054;-46
2023/05/22 02:45:58;;;;;;;11.63;6.28;;;;;;;;;;4985642;28;20030;-40
2023/05/22 02:48:23;;;;;;;7.03;6.32;;;;;;;;;;4985480;28;20481;-40
2023/05/22 02:50:49;;;;;;;7.35;6.57;;;;;;;;;;4982796;28;20038;-41
2023/05/22 02:53:15;;;;;;;9.40;6.70;;;;;;;;;;4981412;28;20732;-40
2023/05/22 02:55:41;;;;;;;6.90;6.20;;;;;;;;;;4978212;28;20044;-43
2023/05/22 02:58:10;;;;;;;6.45;5.43;;;;;;;;;;4983812;28;20038;-41
2023/05/22 03:00:38;;;;;;;11.07;6.07;;;;;;;;;;4984861;28;20033;-40
2023/05/22 03:03:05;;;;;;;6.53;5.93;;;;;;;;;;4987571;28;20041;-41
2023/05/22 03:05:31;;;;;;;11.23;6.30;;;;;;;;;;4989790;28;20030;-42
2023/05/22 03:07:57;;;;;;;6.78;6.13;;;;;;;;;;4979582;28;20037;-40
2023/05/22 03:10:22;;;;;;;7.55;6.47;;;;;;;;;;4982064;28;20121;-41
2023/05/22 03:12:48;;;;;;;9.02;6.53;;;;;;;;;;4983851;28;20068;-43
2023/05/22 03:15:13;;;;;;;9.60;6.60;;;;;;;;;;4980184;28;20026;-41
2023/05/22 03:17:39;;;;;;;12.98;6.65;;;;;;;;;;4980459;28;20037;-43
2023/05/22 03:20:05;;;;;;;8.57;6.45;;;;;;;;;;4980429;28;20027;-40
2023/05/22 03:22:31;;;;;;;11.52;6.30;;;;;;;;;;4982911;28;20046;-44
2023/05/22 03:24:56;;;;;;;8.18;6.38;;;;;;;;;;4985255;28;20109;-43
2023/05/22 03:27:22;;;;;;;9.90;6.40;;;;;;;;;;4982393;28;20030;-46
2023/05/22 03:29:47;;;;;;;9.65;5.97;;;;;;;;;;4984585;28;20030;-40
2023/05/22 03:32:12;;;;;;;7.07;6.15;;;;;;;;;;4983047;28;20066;-40
2023/05/22 03:34:38;;;;;;;7.55;6.45;;;;;;;;;;4984370;28;20033;-40
2023/05/22 03:37:03;;;;;;;6.88;6.18;;;;;;;;;;4981397;28;20096;-40
2023/05/22 03:39:29;;;;;;;6.97;6.38;;;;;;;;;;4984193;28;20454;-40
2023/05/22 03:41:54;;;;;;;10.82;6.50;;;;;;;;;;4982025;28;20038;-40
2023/05/22 03:44:19;;;;;;;7.18;6.45;;;;;;;;;;4985473;28;20022;-41
2023/05/22 03:46:45;;;;;;;6.57;6.00;;;;;;;;;;4982657;28;20081;-43
2023/05/22 03:49:10;;;;;;;7.30;6.60;;;;;;;;;;4986139;28;20037;-41
2023/05/22 03:51:36;;;;;;;19.50;6.13;;;;;;;;;;4980013;28;20408;-41
2023/05/22 03:54:01;;;;;;;6.07;5.57;;;;;;;;;;4984152;28;20053;-42
2023/05/22 03:56:27;;;;;;;6.10;5.50;;;;;;;;;;4984850;28;20256;-40
2023/05/22 03:58:52;;;;;;;6.38;5.38;;;;;;;;;;4982793;28;20029;-41
2023/05/22 04:01:17;;;;;;;6.28;5.68;;;;;;;;;;4986512;28;20039;-47
2023/05/22 04:03:43;;;;;;;6.45;5.65;;;;;;;;;;4992527;28;20026;-45
2023/05/22 04:06:09;;;;;;;6.13;4.95;;;;;;;;;;4986090;28;20170;-43
2023/05/22 04:08:35;;;;;;;5.90;5.30;;;;;;;;;;4985999;28;20019;-42
2023/05/22 04:11:01;;;;;;;5.35;4.85;;;;;;;;;;4981469;28;20487;-42
2023/05/22 04:13:29;;;;;;;5.65;5.15;;;;;;;;;;4986097;28;20046;-43
2023/05/22 04:15:55;;;;;;;5.63;5.20;;;;;;;;;;4986268;28;20691;-42
2023/05/22 04:18:21;;;;;;;10.57;5.80;;;;;;;;;;4989668;28;20034;-41
2023/05/22 04:20:46;;;;;;;7.03;5.20;;;;;;;;;;4983993;28;20403;-42
2023/05/22 04:23:12;;;;;;;6.60;5.00;;;;;;;;;;4986489;28;20479;-45
2023/05/22 04:25:37;;;;;;;6.10;5.38;;;;;;;;;;4982955;28;20029;-44
2023/05/22 04:28:03;;;;;;;5.70;5.15;;;;;;;;;;4989412;28;20058;-44
2023/05/22 04:30:32;;;;;;;8.32;4.97;;;;;;;;;;4986738;28;20053;-48
2023/05/22 04:32:59;;;;;;;5.63;5.00;;;;;;;;;;4987980;28;20117;-43
2023/05/22 04:35:24;;;;;;;5.43;4.93;;;;;;;;;;4986483;28;20029;-40
2023/05/22 04:37:50;;;;;;;6.82;5.30;;;;;;;;;;4984982;28;20023;-47
2023/05/22 04:40:15;;;;;;;8.00;5.10;;;;;;;;;;4983760;28;20490;-43
2023/05/22 04:42:44;;;;;;;5.75;5.35;;;;;;;;;;4986752;28;20042;-48
2023/05/22 04:45:10;;;;;;;9.48;5.10;;;;;;;;;;4985960;28;20018;-47
2023/05/22 04:47:37;;;;;;;7.60;5.20;;;;;;;;;;4984944;28;20037;-48
2023/05/22 04:50:03;;;;;;;5.57;5.00;;;;;;;;;;4981741;28;20030;-42
2023/05/22 04:52:28;;;;;;;5.53;4.95;;;;;;;;;;4980538;28;20042;-45
2023/05/22 04:54:54;;;;;;;6.00;4.75;;;;;;;;;;4985134;28;20030;-42
2023/05/22 04:57:24;;;;;;;5.00;4.45;;;;;;;;;;4982900;28;20066;-41
2023/05/22 04:59:50;;;;;;;6.22;5.20;;;;;;;;;;4984716;28;20117;-42
2023/05/22 05:02:16;;;;;;;5.82;5.22;;;;;;;;;;4985633;28;20035;-41
2023/05/22 05:04:42;;;;;;;5.28;4.78;;;;;;;;;;4984333;28;20029;-43
2023/05/22 05:07:08;;;;;;;9.93;5.18;;;;;;;;;;4987806;28;20037;-43
2023/05/22 05:09:33;;;;;;;6.65;5.57;;;;;;;;;;4987464;28;20040;-41
2023/05/22 05:11:59;;;;;;;6.22;5.22;;;;;;;;;;4980717;28;20042;-42
2023/05/22 05:14:24;;;;;;;5.05;4.65;;;;;;;;;;4980495;28;20026;-42
2023/05/22 05:16:53;;;;;;;5.97;5.38;;;;;;;;;;4984970;28;20034;-42
2023/05/22 05:19:22;;;;;;;5.32;4.70;;;;;;;;;;4982299;28;20030;-40
2023/05/22 05:21:48;;;;;;;10.63;5.40;;;;;;;;;;4984571;28;20051;-40
2023/05/22 05:24:14;;;;;;;5.45;4.95;;;;;;;;;;4987313;28;20038;-40
2023/05/22 05:26:40;;;;;;;6.80;4.97;;;;;;;;;;4982223;28;20073;-43
2023/05/22 05:29:05;;;;;;;6.57;4.93;;;;;;;;;;4977306;28;20129;-49
2023/05/22 05:31:32;;;;;;;5.80;5.25;;;;;;;;;;4981555;28;20038;-42
2023/05/22 05:33:57;;;;;;;5.75;5.20;;;;;;;;;;4982067;28;20027;-41
2023/05/22 05:36:23;;;;;;;7.95;5.18;;;;;;;;;;4980688;28;20038;-40
2023/05/22 05:38:48;;;;;;;7.57;5.05;;;;;;;;;;4980047;28;20034;-41
2023/05/22 05:41:13;;;;;;;8.75;4.97;;;;;;;;;;4979356;28;20038;-40
2023/05/22 05:43:39;;;;;;;6.38;5.18;;;;;;;;;;4980125;28;20061;-40
2023/05/22 05:46:04;;;;;;;6.85;5.50;;;;;;;;;;4985826;28;20510;-42
2023/05/22 05:48:30;;;;;;;5.78;5.22;;;;;;;;;;4981869;28;20383;-41
2023/05/22 05:50:55;;;;;;;5.40;4.85;;;;;;;;;;4982835;28;20515;-41
2023/05/22 05:53:21;;;;;;;10.95;6.13;;;;;;;;;;4984458;28;20084;-42
2023/05/22 05:55:46;;;;;;;7.15;5.70;;;;;;;;;;4983444;28;20034;-40
2023/05/22 05:58:12;;;;;;;8.25;6.47;;;;;;;;;;4980140;28;20122;-40
2023/05/22 06:00:37;;;;;;;6.38;5.78;;;;;;;;;;4983374;28;20026;-40
2023/05/22 06:03:03;;;;;;;6.55;5.30;;;;;;;;;;4982177;28;20529;-41
2023/05/22 06:05:28;;;;;;;6.63;5.97;;;;;;;;;;4981612;28;20403;-41
2023/05/22 06:07:56;;;;;;;7.40;5.75;;;;;;;;;;4982125;28;20058;-43
2023/05/22 06:10:22;;;;;;;8.50;5.30;;;;;;;;;;4978278;28;20038;-41
2023/05/22 06:12:47;;;;;;;5.78;5.13;;;;;;;;;;4983112;28;20037;-41
2023/05/22 06:15:13;;;;;;;5.93;5.30;;;;;;;;;;4979382;28;20030;-40
2023/05/22 06:17:38;;;;;;;6.65;5.03;;;;;;;;;;4973640;28;20042;-43
2023/05/22 06:20:05;;;;;;;5.40;5.00;;;;;;;;;;4984504;28;20552;-40
2023/05/22 06:22:31;;;;;;;6.05;5.45;;;;;;;;;;4980499;28;20066;-41
2023/05/22 06:24:57;;;;;;;4.78;4.38;;;;;;;;;;4983320;28;20026;-41
2023/05/22 06:27:23;;;;;;;6.15;4.80;;;;;;;;;;4981234;28;20035;-41
2023/05/22 06:29:49;;;;;;;7.63;5.13;;;;;;;;;;4984156;28;20026;-41
2023/05/22 06:32:15;;;;;;;7.93;5.20;;;;;;;;;;4983086;28;20407;-41
2023/05/22 06:34:43;;;;;;;5.43;4.93;;;;;;;;;;4983389;28;20026;-40
2023/05/22 06:37:08;;;;;;;5.70;4.90;;;;;;;;;;4984035;28;20049;-41
2023/05/22 06:39:34;;;;;;;7.68;4.93;;;;;;;;;;4982057;28;20034;-43
2023/05/22 06:41:59;;;;;;;6.70;4.72;;;;;;;;;;4984998;28;20053;-40
2023/05/22 06:44:25;;;;;;;6.07;4.68;;;;;;;;;;4983879;28;20038;-46
2023/05/22 06:46:51;;;;;;;7.95;4.97;;;;;;;;;;4982906;28;20023;-41
2023/05/22 06:49:17;;;;;;;12.85;5.00;;;;;;;;;;4983571;28;20041;-46
2023/05/22 06:51:42;;;;;;;5.53;5.03;;;;;;;;;;4984877;28;20030;-42
2023/05/22 06:54:08;;;;;;;4.75;4.25;;;;;;;;;;4985097;28;20026;-40
2023/05/22 06:56:33;;;;;;;9.70;5.10;;;;;;;;;;4984422;28;20054;-41
2023/05/22 06:58:59;;;;;;;5.20;4.75;;;;;;;;;;4985027;28;20030;-40
2023/05/22 07:01:25;;;;;;;6.00;5.38;;;;;;;;;;4981041;28;20039;-39
2023/05/22 07:03:50;;;;;;;10.05;5.07;;;;;;;;;;4987232;28;20534;-41
2023/05/22 07:06:16;;;;;;;7.20;5.25;;;;;;;;;;4981440;28;20074;-44
2023/05/22 07:08:42;;;;;;;10.48;5.13;;;;;;;;;;4982260;28;20018;-44
2023/05/22 07:11:07;;;;;;;11.32;5.57;;;;;;;;;;4980737;28;20133;-45
2023/05/22 07:13:33;;;;;;;6.05;4.97;;;;;;;;;;4980284;28;20034;-40
2023/05/22 07:15:58;;;;;;;7.75;4.93;;;;;;;;;;4983992;28;20054;-41
2023/05/22 07:18:23;;;;;;;5.78;5.10;;;;;;;;;;4983695;28;20034;-41
2023/05/22 07:20:49;;;;;;;8.30;4.68;;;;;;;;;;4981787;28;20058;-41
2023/05/22 07:23:14;;;;;;;6.68;5.25;;;;;;;;;;4982636;28;20457;-41
2023/05/22 07:25:41;;;;;;;7.50;5.15;;;;;;;;;;4982072;28;20042;-42
2023/05/22 07:28:08;;;;;;;9.27;5.40;;;;;;;;;;4979175;28;20038;-46
2023/05/22 07:30:35;;;;;;;8.40;5.47;;;;;;;;;;4982510;28;20027;-43
2023/05/22 07:33:01;;;;;;;9.35;5.00;;;;;;;;;;4980133;28;20099;-42
2023/05/22 07:35:27;;;;;;;7.60;5.28;;;;;;;;;;4982015;28;20113;-42
2023/05/22 07:37:52;;;;;;;11.32;5.47;;;;;;;;;;4981770;28;20036;-41
2023/05/22 07:40:17;;;;;;;8.15;6.13;;;;;;;;;;4984085;28;20042;-41
2023/05/22 07:42:43;;;;;;;11.90;5.63;;;;;;;;;;4983550;28;20034;-41
2023/05/22 07:45:09;;;;;;;14.15;5.68;;;;;;;;;;4978587;28;20030;-43
2023/05/22 07:47:34;;;;;;;12.73;9.10;;;;;;;;;;4979734;28;20039;-42
2023/05/22 07:50:03;;;;;;;17.25;8.70;;;;;;;;;;4981975;28;20031;-41
2023/05/22 07:52:28;;;;;;;9.60;7.88;;;;;;;;;;4980307;28;20372;-42
2023/05/22 07:54:53;;;;;;;12.63;9.02;;;;;;;;;;4984451;28;20038;-44
2023/05/22 07:57:19;;;;;;;12.77;10.43;;;;;;;;;;4980192;28;20066;-41
2023/05/22 07:59:44;;;;;;;18.25;9.13;;;;;;;;;;4981519;28;20384;-45
2023/05/22 08:02:10;;;;;;;10.93;7.93;;;;;;;;;;4982025;28;20042;-41
2023/05/22 08:04:35;;;;;;;12.18;8.77;;;;;;;;;;4985738;28;20085;-41
2023/05/22 08:07:01;;;;;;;15.93;8.55;;;;;;;;;;4982576;28;20082;-47
2023/05/22 08:09:26;;;;;;;20.63;10.90;;;;;;;;;;4982114;28;20054;-44
2023/05/22 08:11:52;;;;;;;15.73;10.02;;;;;;;;;;4979124;28;20047;-41
2023/05/22 08:14:17;;;;;;;13.75;9.35;;;;;;;;;;4981580;28;20093;-42
2023/05/22 08:16:42;;;;;;;9.80;8.63;;;;;;;;;;4981152;28;20039;-45
2023/05/22 08:19:08;;;;;;;15.27;8.82;;;;;;;;;;4983261;28;20530;-42
2023/05/22 08:21:34;;;;;;;14.23;9.45;;;;;;;;;;4979921;28;20034;-42
2023/05/22 08:24:00;;;;;;;13.88;9.50;;;;;;;;;;4980672;28;20043;-42
2023/05/22 08:26:26;;;;;;;16.35;11.25;;;;;;;;;;4982329;28;20064;-46
2023/05/22 08:28:51;;;;;;;16.33;11.10;;;;;;;;;;4978845;28;20058;-44
2023/05/22 08:31:17;;;;;;;24.00;12.90;;;;;;;;;;4980756;28;20038;-41
2023/05/22 08:33:43;;;;;;;17.30;11.80;;;;;;;;;;4978234;28;20085;-42
2023/05/22 08:36:08;;;;;;;14.98;9.48;;;;;;;;;;4982695;28;20453;-41
2023/05/22 08:38:33;;;;;;;20.52;9.95;;;;;;;;;;4983140;28;20030;-44
2023/05/22 08:40:59;;;;;;;21.77;11.27;;;;;;;;;;4981775;28;20345;-45
2023/05/22 08:43:24;;;;;;;13.32;11.02;;;;;;;;;;4983609;28;20472;-45
2023/05/22 08:45:56;;;;;;;18.92;11.20;;;;;;;;;;4980537;28;20455;-47
2023/05/22 08:48:22;;;;;;;;;;;;;;;;;;4982141;28;20109;-42
2023/05/22 08:50:56;;;;;;;14.07;10.20;;;;;;;;;;4983412;28;20025;-41
2023/05/22 08:53:22;;;;;;;12.98;10.30;;;;;;;;;;4987465;28;20034;-41
2023/05/22 08:55:48;;;;;;;16.75;9.05;;;;;;;;;;4986218;28;20042;-42
2023/05/22 08:58:14;;;;;;;11.68;9.10;;;;;;;;;;4986758;28;20042;-42
2023/05/22 09:00:40;;;;;;;21.63;11.20;;;;;;;;;;4984455;28;20061;-41
2023/05/22 09:03:08;;;;;;;21.92;11.48;;;;;;;;;;4987197;28;20077;-42
2023/05/22 09:05:35;;;;;;;18.55;9.68;;;;;;;;;;4986577;28;20035;-41
2023/05/22 09:08:03;;;;;;;17.42;9.68;;;;;;;;;;4985962;28;20030;-41
2023/05/22 09:10:28;;;;;;;10.63;8.18;;;;;;;;;;4986642;28;20384;-44
2023/05/22 09:13:06;;;;;;;16.40;9.13;;;;;;;;;;4985442;28;20030;-42
2023/05/22 09:15:32;;;;;;;22.27;8.77;;;;;;;;;;4983702;28;20030;-45
2023/05/22 09:17:58;;;;;;;10.60;8.80;;;;;;;;;;4984380;28;20062;-43
2023/05/22 09:20:25;;;;;;;11.20;8.63;;;;;;;;;;4983547;28;20026;-42
2023/05/22 09:22:50;;;;;;;14.52;8.00;;;;;;;;;;4984310;28;20592;-46
2023/05/22 09:25:20;;;;;;;16.95;8.85;;;;;;;;;;4984270;28;20081;-42
2023/05/22 09:27:49;;;;;;;14.02;7.25;;;;;;;;;;4982765;28;20728;-44
2023/05/22 09:30:17;;;;;;;9.48;7.80;;;;;;;;;;5017947;28;20037;-46
2023/05/22 09:32:45;;;;;;;13.73;7.60;;;;;;;;;;4984907;28;20027;-44
2023/05/22 09:35:12;;;;;;;11.98;7.88;;;;;;;;;;4984073;28;20034;-43
2023/05/22 09:37:38;;;;;;;11.80;6.40;;;;;;;;;;4983840;28;20101;-42
2023/05/22 09:40:05;;;;;;;7.05;6.10;;;;;;;;;;4984207;28;20034;-51
2023/05/22 09:42:34;;;;;;;10.23;6.38;;;;;;;;;;5016764;28;20053;-41
2023/05/22 09:45:05;;;;;;;12.13;6.80;;;;;;;;;;4983442;28;20486;-42
2023/05/22 09:47:31;;;;;;;7.55;6.43;;;;;;;;;;4983442;28;20043;-44
2023/05/22 09:49:59;;;;;;;11.20;6.07;;;;;;;;;;4982958;28;20361;-45
2023/05/22 09:52:27;;;;;;;10.02;6.07;;;;;;;;;;4984087;28;20058;-42
2023/05/22 09:54:55;;;;;;;14.35;6.53;;;;;;;;;;4983064;28;20038;-44
2023/05/22 09:57:23;;;;;;;6.70;6.00;;;;;;;;;;4981368;28;20066;-44
2023/05/22 09:59:56;;;;;;;8.13;5.53;;;;;;;;;;4985719;28;20452;-45
2023/05/22 10:02:26;;;;;;;7.30;5.88;;;;;;;;;;4987854;28;20491;-42
2023/05/22 10:04:53;;;;;;;5.65;5.10;;;;;;;;;;4986846;28;20038;-42
2023/05/22 10:07:21;;;;;;;6.28;5.68;;;;;;;;;;4984554;28;20038;-42
2023/05/22 10:09:51;;;;;;;6.47;5.00;;;;;;;;;;4986207;28;20088;-42
2023/05/22 10:12:20;;;;;;;8.30;5.85;;;;;;;;;;5009551;28;20042;-44
2023/05/22 10:14:46;;;;;;;6.72;5.53;;;;;;;;;;4986624;28;20033;-45
2023/05/22 10:17:12;;;;;;;12.40;6.38;;;;;;;;;;4986299;28;20125;-42
2023/05/22 10:19:39;;;;;;;6.95;5.72;;;;;;;;;;4984697;28;20062;-46
2023/05/22 10:22:05;;;;;;;7.60;5.60;;;;;;;;;;4983741;28;20038;-47
2023/05/22 10:24:30;;;;;;;5.82;5.25;;;;;;;;;;5012047;28;20038;-51
2023/05/22 10:26:56;;;;;;;8.70;5.20;;;;;;;;;;4985936;28;20042;-42
2023/05/22 10:29:34;;;;;;;6.72;4.95;;;;;;;;;;4984517;28;20498;-50
2023/05/22 10:32:23;;;;;;;5.75;4.95;;;;;;;;;;4985512;28;20049;-41
2023/05/22 10:35:18;;;;;;;6.10;4.82;;;;;;;;;;4983922;28;20036;-45
2023/05/22 10:37:54;;;;;;;5.95;5.35;;;;;;;;;;4981445;28;20078;-47
2023/05/22 10:40:33;;;;;;;6.93;5.32;;;;;;;;;;4986275;28;20077;-45
2023/05/22 10:43:00;;;;;;;7.25;4.63;;;;;;;;;;4984534;28;20038;-47
2023/05/22 10:45:29;;;;;;;10.88;5.60;;;;;;;;;;4981317;28;20121;-42
2023/05/22 10:48:05;;;;;;;9.50;4.80;;;;;;;;;;4980463;28;20044;-50
2023/05/22 10:50:31;;;;;;;7.03;4.90;;;;;;;;;;4983312;28;20054;-49
2023/05/22 10:53:25;;;;;;;6.22;4.65;;;;;;;;;;4985058;28;20104;-43
2023/05/22 10:55:55;;;;;;;9.48;5.07;;;;;;;;;;4984511;28;20045;-45
2023/05/22 10:58:26;;;;;;;5.18;4.68;;;;;;;;;;4981874;28;20027;-46
2023/05/22 11:01:17;;;;;;;7.05;5.18;;;;;;;;;;4979953;28;20034;-47
2023/05/22 11:04:14;;;;;;;6.35;4.55;;;;;;;;;;4990991;28;20084;-43
2023/05/22 11:06:48;;;;;;;5.30;4.80;;;;;;;;;;4980967;28;20061;-45
2023/05/22 11:09:24;;;;;;;6.07;4.70;;;;;;;;;;4984546;28;20120;-48
2023/05/22 11:12:29;;;;;;;8.57;4.88;;;;;;;;;;4982336;28;20464;-47
2023/05/22 11:14:57;;;;;;;10.75;4.60;;;;;;;;;;4980888;28;20053;-44
2023/05/22 11:17:22;;;;;;;6.65;4.82;;;;;;;;;;4980515;28;20145;-44
2023/05/22 11:20:01;;;;;;;10.38;5.20;;;;;;;;;;4981219;28;20122;-46
2023/05/22 11:22:40;;;;;;;5.30;4.80;;;;;;;;;;4980419;28;20042;-45
2023/05/22 11:25:10;;;;;;;6.78;5.25;;;;;;;;;;4980330;28;20040;-43
2023/05/22 11:27:37;;;;;;;15.25;5.30;;;;;;;;;;4981256;28;20105;-44
2023/05/22 11:30:03;;;;;;;5.55;5.05;;;;;;;;;;4979511;28;20034;-44
2023/05/22 11:32:29;;;;;;;5.45;4.28;;;;;;;;;;4978456;28;20046;-41
2023/05/22 11:34:56;;;;;;;7.75;4.75;;;;;;;;;;4982208;28;20085;-45
2023/05/22 11:37:22;;;;;;;7.68;4.85;;;;;;;;;;4978818;28;20046;-46
2023/05/22 11:40:03;;;;;;;7.70;4.97;;;;;;;;;;4980557;28;20035;-41
2023/05/22 11:42:28;;;;;;;5.32;4.90;;;;;;;;;;4981669;28;20490;-43
2023/05/22 11:44:54;;;;;;;6.25;4.68;;;;;;;;;;4982614;28;20042;-40
2023/05/22 11:47:20;;;;;;;7.78;4.75;;;;;;;;;;4975109;28;20042;-41
2023/05/22 11:49:45;;;;;;;10.50;6.15;;;;;;;;;;5014129;28;20038;-41
2023/05/22 11:52:11;;;;;;;6.20;5.60;;;;;;;;;;4983991;28;20053;-41
2023/05/22 11:54:36;;;;;;;6.63;5.20;;;;;;;;;;4984443;28;20028;-41
2023/05/22 11:57:08;;;;;;;5.88;4.80;;;;;;;;;;4982011;28;20096;-44
2023/05/22 11:59:33;;;;;;;9.88;5.30;;;;;;;;;;4983583;28;20058;-42
2023/05/22 12:01:59;;;;;;;6.38;5.40;;;;;;;;;;4981475;28;20046;-41
2023/05/22 12:04:24;;;;;;;10.68;5.55;;;;;;;;;;4985178;28;20034;-44
2023/05/22 12:06:50;;;;;;;12.75;5.53;;;;;;;;;;4984593;28;20085;-40
2023/05/22 12:09:16;;;;;;;6.72;6.13;;;;;;;;;;4983737;28;20041;-40
2023/05/22 12:11:48;;;;;;;11.63;5.60;;;;;;;;;;4982901;28;20035;-41
2023/05/22 12:14:13;;;;;;;;;;;;;;;;;;4980176;28;20085;-41
2023/05/22 12:16:38;;;;;;;11.10;6.57;;;;;;;;;;4981473;28;20402;-43
2023/05/22 12:19:08;;;;;;;10.10;5.95;;;;;;;;;;4983941;28;20035;-43
2023/05/22 12:21:35;;;;;;;6.97;6.18;;;;;;;;;;4985856;28;20521;-45
2023/05/22 12:24:04;;;;;;;9.07;6.70;;;;;;;;;;4985661;28;20041;-42
2023/05/22 12:26:30;;;;;;;10.68;5.65;;;;;;;;;;4986416;28;20069;-40
2023/05/22 12:28:59;;;;;;;8.65;6.00;;;;;;;;;;4987388;28;20050;-43
2023/05/22 12:31:25;;;;;;;9.50;6.25;;;;;;;;;;4982959;28;20105;-40
2023/05/22 12:33:54;;;;;;;7.55;5.50;;;;;;;;;;4988097;28;20023;-41
2023/05/22 12:36:20;;;;;;;7.47;5.43;;;;;;;;;;4985487;28;20053;-42
2023/05/22 12:38:45;;;;;;;6.35;5.80;;;;;;;;;;4986720;28;20026;-39
2023/05/22 12:41:10;;;;;;;7.70;5.60;;;;;;;;;;4983796;28;20042;-41
2023/05/22 12:43:36;;;;;;;5.68;5.18;;;;;;;;;;4984881;28;20058;-42
2023/05/22 12:46:01;;;;;;;8.52;5.82;;;;;;;;;;4988002;28;20042;-41
2023/05/22 12:48:27;;;;;;;13.70;5.47;;;;;;;;;;4988593;28;20037;-42
2023/05/22 12:50:53;;;;;;;6.00;5.35;;;;;;;;;;4982650;28;20463;-46
2023/05/22 12:53:18;;;;;;;7.93;5.30;;;;;;;;;;4986089;28;20133;-43
2023/05/22 12:55:44;;;;;;;8.60;5.72;;;;;;;;;;4987570;28;20751;-47
2023/05/22 12:58:09;;;;;;;6.03;5.43;;;;;;;;;;4987373;28;20092;-47
2023/05/22 13:00:35;;;;;;;7.65;5.43;;;;;;;;;;4986100;28;20030;-41
2023/05/22 13:03:00;;;;;;;8.43;5.43;;;;;;;;;;4986813;28;20494;-47
2023/05/22 13:05:26;;;;;;;9.38;6.47;;;;;;;;;;4984443;28;20114;-41
2023/05/22 13:07:51;;;;;;;15.85;6.28;;;;;;;;;;4987093;28;20054;-41
2023/05/22 13:10:17;;;;;;;9.95;6.20;;;;;;;;;;4983950;28;20026;-41
2023/05/22 13:12:45;;;;;;;11.57;6.22;;;;;;;;;;4985902;28;20034;-42
2023/05/22 13:15:12;;;;;;;15.13;6.95;;;;;;;;;;4983099;28;20045;-40
2023/05/22 13:17:38;;;;;;;27.00;8.85;;;;;;;;;;4986106;28;20031;-45
2023/05/22 13:20:05;;;;;;;38.95;11.93;;;;;;;;;;4985107;28;20049;-42
2023/05/22 13:22:30;;;;;;;42.78;12.40;;;;;;;;;;4985933;28;20034;-42
2023/05/22 13:24:56;;;;;;;21.25;7.90;;;;;;;;;;4983107;28;20034;-42
2023/05/22 13:27:21;;;;;;;20.20;6.85;;;;;;;;;;4980571;28;20039;-45
2023/05/22 13:29:47;;;;;;;14.45;5.93;;;;;;;;;;4985946;28;20034;-46
2023/05/22 13:32:13;;;;;;;22.60;7.25;;;;;;;;;;4982666;28;20153;-49
2023/05/22 13:34:39;;;;;;;16.50;7.40;;;;;;;;;;4982489;28;20034;-49
2023/05/22 13:37:05;;;;;;;20.85;6.10;;;;;;;;;;4984540;28;20039;-42
2023/05/22 13:39:30;;;;;;;14.50;7.55;;;;;;;;;;4987057;28;20026;-48
2023/05/22 13:41:56;;;;;;;11.88;6.75;;;;;;;;;;4982410;28;20687;-46
2023/05/22 13:44:22;;;;;;;9.98;7.15;;;;;;;;;;4985191;28;20034;-44
2023/05/22 13:46:47;;;;;;;13.15;7.93;;;;;;;;;;4984847;28;20045;-41
2023/05/22 13:49:12;;;;;;;11.88;7.57;;;;;;;;;;4988856;28;20113;-41
2023/05/22 13:51:38;;;;;;;15.55;8.55;;;;;;;;;;4982757;28;20144;-41
2023/05/22 13:54:03;;;;;;;13.70;7.40;;;;;;;;;;4987622;28;20040;-43
2023/05/22 13:56:29;;;;;;;12.30;7.35;;;;;;;;;;4980879;28;20155;-43
2023/05/22 13:58:55;;;;;;;13.65;8.38;;;;;;;;;;4985439;28;20424;-48
2023/05/22 14:01:20;;;;;;;13.45;8.57;;;;;;;;;;4983372;28;20053;-42
2023/05/22 14:03:45;;;;;;;20.52;9.93;;;;;;;;;;4988463;28;20052;-44
2023/05/22 14:06:11;;;;;;;31.15;9.90;;;;;;;;;;4979802;28;20039;-43
2023/05/22 14:08:36;;;;;;;31.40;9.68;;;;;;;;;;4985483;28;20037;-43
2023/05/22 14:11:02;;;;;;;42.47;11.50;;;;;;;;;;4984454;28;20089;-42
2023/05/22 14:13:27;;;;;;;66.10;11.88;;;;;;;;;;4983581;28;20130;-44
2023/05/22 14:15:53;;;;;;;59.28;11.52;;;;;;;;;;4980815;28;20057;-47
2023/05/22 14:18:18;;;;;;;57.10;9.90;;;;;;;;;;4984767;28;20057;-47
2023/05/22 14:20:45;;;;;;;46.67;9.65;;;;;;;;;;4981922;28;20133;-42
2023/05/22 14:23:11;;;;;;;54.25;9.32;;;;;;;;;;4983190;28;20069;-44
2023/05/22 14:25:41;;;;;;;44.40;9.38;;;;;;;;;;4985438;28;20022;-42
2023/05/22 14:28:07;;;;;;;46.08;9.60;;;;;;;;;;4984556;28;20027;-44
2023/05/22 14:30:32;;;;;;;32.45;8.38;;;;;;;;;;4983524;28;20042;-43
2023/05/22 14:32:57;;;;;;;28.90;8.10;;;;;;;;;;4982937;28;20117;-42
2023/05/22 14:35:23;;;;;;;22.48;7.78;;;;;;;;;;4984971;28;20029;-46
2023/05/22 14:37:48;;;;;;;41.97;9.02;;;;;;;;;;4982633;28;20125;-45
2023/05/22 14:40:13;;;;;;;25.25;9.60;;;;;;;;;;4985207;28;20501;-43